Terminal Aerodrome Forecast
Issued by NWS

Home | Current Version | Previous Version | Text Only | Print | Product List | Glossary On
Versions: 1 2 3 4 5 6 7 8 9 10 11 12 13 14 15 16 17 18
000
FTUS44 KMAF 261911 AAA
TAFHOB
TAF AMD
KHOB 261911Z 2619/2718 23014KT P6SM FEW250
     FM270200 23006KT P6SM SCT200
     FM271200 25007KT P6SM SCT250
     FM271600 25012G22KT P6SM FEW250=

USA.gov is the U.S. government's official web portal to all federal, state and local government web resources and services.